Gyumri, Armenia
Current Conditions -  °F | °C
As of 6:30 AM on Wednesday 22 Oct 2014 (Local Time) from UDSG Reporting Station
Clear Clear  
Wind Chill: 25°   Ceiling: Unl
Heat Index: 30°   Visibility: 6mi
Dew Point: 28°   Wind: 4mph
Humidity: 93%   Direction: 20°NNE
Pressure: 30.06"   Gusts: NA
Location:  40.78°N, 43.83°E
Report Text: UDSG 220130Z 02002MPS 9999 NSC M01/M02 Q1018 R02/CLRD70 NOSIG
Loading
Personal Weather Stations






























Interactive Weather Map New forecast layout! Learn more

10-Day Weather Forecast

Advertisements
Track Severe Weather on mobile